sensor_id;sensor_type;location;lat;lon;timestamp;P1;durP1;ratioP1;P2;durP2;ratioP2
50769;SDS011;36740;48.698;11.472;2023-02-21T00:01:13;2.92;;;2.60;;
50769;SDS011;36740;48.698;11.472;2023-02-21T00:04:17;3.63;;;3.15;;
50769;SDS011;36740;48.698;11.472;2023-02-21T00:07:21;14.55;;;4.43;;
50769;SDS011;36740;48.698;11.472;2023-02-21T00:10:26;6.35;;;4.38;;
50769;SDS011;36740;48.698;11.472;2023-02-21T00:13:30;7.38;;;3.05;;
50769;SDS011;36740;48.698;11.472;2023-02-21T00:16:38;5.97;;;3.53;;
50769;SDS011;36740;48.698;11.472;2023-02-21T00:19:42;8.00;;;4.30;;
50769;SDS011;36740;48.698;11.472;2023-02-21T00:22:46;5.93;;;3.17;;
50769;SDS011;36740;48.698;11.472;2023-02-21T00:25:50;4.63;;;2.92;;
50769;SDS011;36740;48.698;11.472;2023-02-21T00:28:55;6.57;;;3.85;;
50769;SDS011;36740;48.698;11.472;2023-02-21T00:31:59;5.00;;;3.15;;
50769;SDS011;36740;48.698;11.472;2023-02-21T00:35:03;6.25;;;3.15;;
50769;SDS011;36740;48.698;11.472;2023-02-21T00:38:07;3.38;;;2.85;;
50769;SDS011;36740;48.698;11.472;2023-02-21T00:41:11;6.50;;;3.10;;
50769;SDS011;36740;48.698;11.472;2023-02-21T00:44:16;4.63;;;3.10;;
50769;SDS011;36740;48.698;11.472;2023-02-21T00:47:20;4.93;;;4.22;;
50769;SDS011;36740;48.698;11.472;2023-02-21T00:50:24;3.60;;;3.28;;
50769;SDS011;36740;48.698;11.472;2023-02-21T00:53:29;3.38;;;2.45;;
50769;SDS011;36740;48.698;11.472;2023-02-21T00:56:33;10.43;;;3.25;;
50769;SDS011;36740;48.698;11.472;2023-02-21T00:59:37;3.13;;;1.73;;
50769;SDS011;36740;48.698;11.472;2023-02-21T01:02:41;2.58;;;2.33;;
50769;SDS011;36740;48.698;11.472;2023-02-21T01:05:45;5.68;;;3.58;;
50769;SDS011;36740;48.698;11.472;2023-02-21T01:08:50;5.18;;;2.75;;
50769;SDS011;36740;48.698;11.472;2023-02-21T01:11:54;5.63;;;4.03;;
50769;SDS011;36740;48.698;11.472;2023-02-21T01:14:58;8.88;;;3.00;;
50769;SDS011;36740;48.698;11.472;2023-02-21T01:18:03;4.85;;;2.67;;
50769;SDS011;36740;48.698;11.472;2023-02-21T01:21:10;4.25;;;2.22;;
50769;SDS011;36740;48.698;11.472;2023-02-21T01:24:15;6.88;;;2.47;;
50769;SDS011;36740;48.698;11.472;2023-02-21T01:27:19;3.60;;;2.53;;
50769;SDS011;36740;48.698;11.472;2023-02-21T01:30:23;6.75;;;2.95;;
50769;SDS011;36740;48.698;11.472;2023-02-21T01:33:28;4.75;;;2.42;;
50769;SDS011;36740;48.698;11.472;2023-02-21T01:36:32;3.67;;;2.47;;
50769;SDS011;36740;48.698;11.472;2023-02-21T01:39:36;3.58;;;2.67;;
50769;SDS011;36740;48.698;11.472;2023-02-21T01:42:41;5.03;;;3.95;;
50769;SDS011;36740;48.698;11.472;2023-02-21T01:45:46;6.45;;;3.30;;
50769;SDS011;36740;48.698;11.472;2023-02-21T01:48:51;5.28;;;3.72;;
50769;SDS011;36740;48.698;11.472;2023-02-21T01:51:57;7.85;;;3.20;;
50769;SDS011;36740;48.698;11.472;2023-02-21T01:55:02;8.73;;;4.38;;
50769;SDS011;36740;48.698;11.472;2023-02-21T01:58:06;4.32;;;3.53;;
50769;SDS011;36740;48.698;11.472;2023-02-21T02:01:11;5.18;;;3.95;;
50769;SDS011;36740;48.698;11.472;2023-02-21T02:04:18;5.40;;;2.55;;
50769;SDS011;36740;48.698;11.472;2023-02-21T02:07:23;7.18;;;3.80;;
50769;SDS011;36740;48.698;11.472;2023-02-21T02:10:27;11.02;;;4.43;;
50769;SDS011;36740;48.698;11.472;2023-02-21T02:13:39;7.63;;;3.92;;
50769;SDS011;36740;48.698;11.472;2023-02-21T02:34:35;4.45;;;2.95;;
50769;SDS011;36740;48.698;11.472;2023-02-21T02:37:45;2.67;;;2.47;;
50769;SDS011;36740;48.698;11.472;2023-02-21T02:40:32;7.80;;;3.20;;
50769;SDS011;36740;48.698;11.472;2023-02-21T02:43:29;4.93;;;3.58;;
50769;SDS011;36740;48.698;11.472;2023-02-21T02:49:02;3.47;;;2.95;;
50769;SDS011;36740;48.698;11.472;2023-02-21T02:51:49;8.93;;;4.10;;
50769;SDS011;36740;48.698;11.472;2023-02-21T02:54:35;3.92;;;2.67;;
50769;SDS011;36740;48.698;11.472;2023-02-21T02:57:21;5.65;;;4.43;;
50769;SDS011;36740;48.698;11.472;2023-02-21T03:00:07;4.65;;;3.22;;
50769;SDS011;36740;48.698;11.472;2023-02-21T03:08:36;6.10;;;3.40;;
50769;SDS011;36740;48.698;11.472;2023-02-21T03:11:24;5.18;;;2.75;;
50769;SDS011;36740;48.698;11.472;2023-02-21T03:14:15;6.45;;;4.05;;
50769;SDS011;36740;48.698;11.472;2023-02-21T03:19:47;7.20;;;3.95;;
50769;SDS011;36740;48.698;11.472;2023-02-21T03:22:34;6.18;;;3.75;;
50769;SDS011;36740;48.698;11.472;2023-02-21T03:25:20;11.43;;;7.72;;
50769;SDS011;36740;48.698;11.472;2023-02-21T03:28:06;10.70;;;5.20;;
50769;SDS011;36740;48.698;11.472;2023-02-21T03:30:52;7.65;;;4.10;;
50769;SDS011;36740;48.698;11.472;2023-02-21T03:33:39;9.02;;;3.78;;
50769;SDS011;36740;48.698;11.472;2023-02-21T03:36:25;5.88;;;3.78;;
50769;SDS011;36740;48.698;11.472;2023-02-21T03:39:11;13.30;;;3.17;;
50769;SDS011;36740;48.698;11.472;2023-02-21T03:41:57;5.15;;;3.65;;
50769;SDS011;36740;48.698;11.472;2023-02-21T03:44:44;5.65;;;3.63;;
50769;SDS011;36740;48.698;11.472;2023-02-21T03:47:30;3.88;;;2.40;;
50769;SDS011;36740;48.698;11.472;2023-02-21T03:50:15;5.25;;;3.00;;
50769;SDS011;36740;48.698;11.472;2023-02-21T03:53:02;7.82;;;3.45;;
50769;SDS011;36740;48.698;11.472;2023-02-21T03:55:47;5.63;;;3.75;;
50769;SDS011;36740;48.698;11.472;2023-02-21T03:58:33;5.65;;;3.17;;
50769;SDS011;36740;48.698;11.472;2023-02-21T04:01:19;3.15;;;2.72;;
50769;SDS011;36740;48.698;11.472;2023-02-21T04:04:04;16.55;;;4.50;;
50769;SDS011;36740;48.698;11.472;2023-02-21T04:06:50;10.15;;;4.28;;
50769;SDS011;36740;48.698;11.472;2023-02-21T04:09:35;4.25;;;3.10;;
50769;SDS011;36740;48.698;11.472;2023-02-21T04:12:24;6.43;;;3.35;;
50769;SDS011;36740;48.698;11.472;2023-02-21T04:15:10;6.45;;;3.08;;
50769;SDS011;36740;48.698;11.472;2023-02-21T04:17:56;8.15;;;3.55;;
50769;SDS011;36740;48.698;11.472;2023-02-21T04:20:41;4.53;;;3.78;;
50769;SDS011;36740;48.698;11.472;2023-02-21T04:23:27;5.50;;;3.00;;
50769;SDS011;36740;48.698;11.472;2023-02-21T04:26:13;7.30;;;4.30;;
50769;SDS011;36740;48.698;11.472;2023-02-21T04:28:58;4.85;;;3.97;;
50769;SDS011;36740;48.698;11.472;2023-02-21T04:31:44;4.18;;;3.58;;
50769;SDS011;36740;48.698;11.472;2023-02-21T04:34:30;5.03;;;3.58;;
50769;SDS011;36740;48.698;11.472;2023-02-21T04:37:16;4.95;;;2.88;;
50769;SDS011;36740;48.698;11.472;2023-02-21T04:40:01;5.55;;;3.10;;
50769;SDS011;36740;48.698;11.472;2023-02-21T04:42:47;4.97;;;2.78;;
50769;SDS011;36740;48.698;11.472;2023-02-21T04:45:33;6.05;;;2.90;;
50769;SDS011;36740;48.698;11.472;2023-02-21T04:48:18;6.50;;;3.85;;
50769;SDS011;36740;48.698;11.472;2023-02-21T04:51:04;3.53;;;2.90;;
50769;SDS011;36740;48.698;11.472;2023-02-21T04:53:51;5.38;;;3.30;;
50769;SDS011;36740;48.698;11.472;2023-02-21T04:56:36;5.55;;;4.03;;
50769;SDS011;36740;48.698;11.472;2023-02-21T04:59:23;6.03;;;4.03;;
50769;SDS011;36740;48.698;11.472;2023-02-21T05:02:09;8.73;;;5.40;;
50769;SDS011;36740;48.698;11.472;2023-02-21T05:04:55;6.68;;;4.38;;
50769;SDS011;36740;48.698;11.472;2023-02-21T05:07:41;10.68;;;6.55;;
50769;SDS011;36740;48.698;11.472;2023-02-21T05:10:26;15.30;;;7.82;;
50769;SDS011;36740;48.698;11.472;2023-02-21T05:13:13;12.93;;;7.50;;
50769;SDS011;36740;48.698;11.472;2023-02-21T05:15:58;14.60;;;7.28;;
50769;SDS011;36740;48.698;11.472;2023-02-21T05:18:45;8.10;;;7.28;;
50769;SDS011;36740;48.698;11.472;2023-02-21T05:21:32;8.77;;;4.75;;
50769;SDS011;36740;48.698;11.472;2023-02-21T05:24:18;9.10;;;4.78;;
50769;SDS011;36740;48.698;11.472;2023-02-21T05:27:09;11.05;;;7.28;;
50769;SDS011;36740;48.698;11.472;2023-02-21T05:29:55;12.88;;;5.60;;
50769;SDS011;36740;48.698;11.472;2023-02-21T05:32:43;10.63;;;6.00;;
50769;SDS011;36740;48.698;11.472;2023-02-21T05:35:29;7.43;;;4.70;;
50769;SDS011;36740;48.698;11.472;2023-02-21T05:38:15;9.35;;;4.57;;
50769;SDS011;36740;48.698;11.472;2023-02-21T05:41:02;9.15;;;4.78;;
50769;SDS011;36740;48.698;11.472;2023-02-21T05:43:48;10.68;;;4.63;;
50769;SDS011;36740;48.698;11.472;2023-02-21T05:46:33;12.48;;;4.25;;
50769;SDS011;36740;48.698;11.472;2023-02-21T05:49:19;4.15;;;3.28;;
50769;SDS011;36740;48.698;11.472;2023-02-21T05:52:05;5.72;;;3.38;;
50769;SDS011;36740;48.698;11.472;2023-02-21T05:54:53;20.65;;;5.15;;
50769;SDS011;36740;48.698;11.472;2023-02-21T05:57:39;9.13;;;3.85;;
50769;SDS011;36740;48.698;11.472;2023-02-21T06:00:25;7.13;;;5.28;;
50769;SDS011;36740;48.698;11.472;2023-02-21T06:03:12;9.25;;;5.78;;
50769;SDS011;36740;48.698;11.472;2023-02-21T06:05:58;6.03;;;4.78;;
50769;SDS011;36740;48.698;11.472;2023-02-21T06:08:47;7.97;;;5.00;;
50769;SDS011;36740;48.698;11.472;2023-02-21T06:11:34;7.25;;;4.55;;
50769;SDS011;36740;48.698;11.472;2023-02-21T06:17:30;7.35;;;5.38;;
50769;SDS011;36740;48.698;11.472;2023-02-21T06:20:16;7.00;;;5.03;;
50769;SDS011;36740;48.698;11.472;2023-02-21T06:23:01;7.97;;;6.15;;
50769;SDS011;36740;48.698;11.472;2023-02-21T06:25:47;10.23;;;5.68;;
50769;SDS011;36740;48.698;11.472;2023-02-21T06:28:35;6.50;;;5.88;;
50769;SDS011;36740;48.698;11.472;2023-02-21T06:34:09;10.93;;;5.80;;
50769;SDS011;36740;48.698;11.472;2023-02-21T06:40:33;9.25;;;6.50;;
50769;SDS011;36740;48.698;11.472;2023-02-21T06:43:39;10.85;;;8.02;;
50769;SDS011;36740;48.698;11.472;2023-02-21T06:46:25;10.32;;;5.97;;
50769;SDS011;36740;48.698;11.472;2023-02-21T06:49:11;11.25;;;7.05;;
50769;SDS011;36740;48.698;11.472;2023-02-21T06:51:57;10.27;;;4.90;;
50769;SDS011;36740;48.698;11.472;2023-02-21T06:54:43;12.25;;;6.03;;
50769;SDS011;36740;48.698;11.472;2023-02-21T06:57:29;8.73;;;6.05;;
50769;SDS011;36740;48.698;11.472;2023-02-21T07:00:15;13.30;;;7.18;;
50769;SDS011;36740;48.698;11.472;2023-02-21T07:03:01;9.27;;;6.45;;
50769;SDS011;36740;48.698;11.472;2023-02-21T07:05:47;10.07;;;5.32;;
50769;SDS011;36740;48.698;11.472;2023-02-21T07:08:32;9.00;;;6.45;;
50769;SDS011;36740;48.698;11.472;2023-02-21T07:11:18;10.48;;;6.43;;
50769;SDS011;36740;48.698;11.472;2023-02-21T07:14:04;10.30;;;6.68;;
50769;SDS011;36740;48.698;11.472;2023-02-21T07:16:49;12.05;;;5.50;;
50769;SDS011;36740;48.698;11.472;2023-02-21T07:19:35;5.90;;;4.70;;
50769;SDS011;36740;48.698;11.472;2023-02-21T07:22:21;14.10;;;5.05;;
50769;SDS011;36740;48.698;11.472;2023-02-21T07:25:17;9.23;;;5.68;;
50769;SDS011;36740;48.698;11.472;2023-02-21T07:28:03;9.93;;;5.53;;
50769;SDS011;36740;48.698;11.472;2023-02-21T07:30:49;9.65;;;4.95;;
50769;SDS011;36740;48.698;11.472;2023-02-21T07:33:35;10.40;;;6.28;;
50769;SDS011;36740;48.698;11.472;2023-02-21T07:36:21;9.25;;;7.43;;
50769;SDS011;36740;48.698;11.472;2023-02-21T07:39:07;10.95;;;7.30;;
50769;SDS011;36740;48.698;11.472;2023-02-21T07:41:53;20.23;;;6.32;;
50769;SDS011;36740;48.698;11.472;2023-02-21T07:44:39;9.07;;;4.68;;
50769;SDS011;36740;48.698;11.472;2023-02-21T07:47:25;11.77;;;4.95;;
50769;SDS011;36740;48.698;11.472;2023-02-21T07:50:11;17.10;;;7.10;;
50769;SDS011;36740;48.698;11.472;2023-02-21T07:52:57;6.80;;;4.70;;
50769;SDS011;36740;48.698;11.472;2023-02-21T07:55:44;10.57;;;6.57;;
50769;SDS011;36740;48.698;11.472;2023-02-21T07:58:29;15.45;;;9.43;;
50769;SDS011;36740;48.698;11.472;2023-02-21T08:01:16;11.15;;;7.60;;
50769;SDS011;36740;48.698;11.472;2023-02-21T08:04:02;10.88;;;6.22;;
50769;SDS011;36740;48.698;11.472;2023-02-21T08:06:48;10.30;;;5.68;;
50769;SDS011;36740;48.698;11.472;2023-02-21T08:09:34;7.97;;;5.40;;
50769;SDS011;36740;48.698;11.472;2023-02-21T08:12:20;8.60;;;4.68;;
50769;SDS011;36740;48.698;11.472;2023-02-21T08:15:05;9.32;;;6.90;;
50769;SDS011;36740;48.698;11.472;2023-02-21T08:17:51;9.30;;;4.90;;
50769;SDS011;36740;48.698;11.472;2023-02-21T08:20:37;9.05;;;5.88;;
50769;SDS011;36740;48.698;11.472;2023-02-21T08:23:22;11.10;;;6.10;;
50769;SDS011;36740;48.698;11.472;2023-02-21T08:26:08;13.77;;;7.82;;
50769;SDS011;36740;48.698;11.472;2023-02-21T08:28:54;14.27;;;8.23;;
50769;SDS011;36740;48.698;11.472;2023-02-21T08:31:40;14.68;;;7.95;;
50769;SDS011;36740;48.698;11.472;2023-02-21T08:34:26;10.60;;;6.35;;
50769;SDS011;36740;48.698;11.472;2023-02-21T08:37:14;8.60;;;7.15;;
50769;SDS011;36740;48.698;11.472;2023-02-21T08:40:02;10.48;;;6.28;;
50769;SDS011;36740;48.698;11.472;2023-02-21T08:42:49;9.85;;;5.47;;
50769;SDS011;36740;48.698;11.472;2023-02-21T08:45:34;10.77;;;6.50;;
50769;SDS011;36740;48.698;11.472;2023-02-21T08:48:20;7.88;;;5.32;;
50769;SDS011;36740;48.698;11.472;2023-02-21T08:51:05;9.27;;;4.60;;
50769;SDS011;36740;48.698;11.472;2023-02-21T08:53:51;6.35;;;4.15;;
50769;SDS011;36740;48.698;11.472;2023-02-21T08:56:37;7.82;;;3.70;;
50769;SDS011;36740;48.698;11.472;2023-02-21T08:59:22;5.45;;;4.07;;
50769;SDS011;36740;48.698;11.472;2023-02-21T09:02:17;5.53;;;3.30;;
50769;SDS011;36740;48.698;11.472;2023-02-21T09:05:07;4.15;;;3.05;;
50769;SDS011;36740;48.698;11.472;2023-02-21T09:07:54;5.38;;;2.95;;
50769;SDS011;36740;48.698;11.472;2023-02-21T09:10:43;6.35;;;3.83;;
50769;SDS011;36740;48.698;11.472;2023-02-21T09:13:31;7.13;;;4.38;;
50769;SDS011;36740;48.698;11.472;2023-02-21T09:16:17;9.48;;;3.55;;
50769;SDS011;36740;48.698;11.472;2023-02-21T09:19:03;4.15;;;3.03;;
50769;SDS011;36740;48.698;11.472;2023-02-21T09:21:51;5.57;;;3.22;;
50769;SDS011;36740;48.698;11.472;2023-02-21T09:24:40;7.35;;;4.15;;
50769;SDS011;36740;48.698;11.472;2023-02-21T09:27:25;7.32;;;3.90;;
50769;SDS011;36740;48.698;11.472;2023-02-21T09:30:22;5.05;;;3.70;;
50769;SDS011;36740;48.698;11.472;2023-02-21T09:33:08;8.15;;;4.18;;
50769;SDS011;36740;48.698;11.472;2023-02-21T09:35:54;9.00;;;3.53;;
50769;SDS011;36740;48.698;11.472;2023-02-21T09:38:40;3.55;;;2.60;;
50769;SDS011;36740;48.698;11.472;2023-02-21T09:41:26;5.50;;;3.78;;
50769;SDS011;36740;48.698;11.472;2023-02-21T09:44:21;8.77;;;4.90;;
50769;SDS011;36740;48.698;11.472;2023-02-21T09:47:09;8.52;;;4.20;;
50769;SDS011;36740;48.698;11.472;2023-02-21T09:50:05;4.65;;;3.15;;
50769;SDS011;36740;48.698;11.472;2023-02-21T09:52:51;5.70;;;2.95;;
50769;SDS011;36740;48.698;11.472;2023-02-21T09:55:37;7.60;;;4.00;;
50769;SDS011;36740;48.698;11.472;2023-02-21T09:58:23;5.40;;;2.55;;
50769;SDS011;36740;48.698;11.472;2023-02-21T10:01:14;5.65;;;3.72;;
50769;SDS011;36740;48.698;11.472;2023-02-21T10:07:09;5.82;;;3.60;;
50769;SDS011;36740;48.698;11.472;2023-02-21T10:12:52;4.35;;;2.83;;
50769;SDS011;36740;48.698;11.472;2023-02-21T10:15:39;4.57;;;2.60;;
50769;SDS011;36740;48.698;11.472;2023-02-21T10:21:43;6.93;;;2.72;;
50769;SDS011;36740;48.698;11.472;2023-02-21T10:24:30;8.85;;;4.40;;
50769;SDS011;36740;48.698;11.472;2023-02-21T10:27:25;6.78;;;3.25;;
50769;SDS011;36740;48.698;11.472;2023-02-21T10:30:15;4.85;;;2.83;;
50769;SDS011;36740;48.698;11.472;2023-02-21T10:33:03;7.47;;;3.63;;
50769;SDS011;36740;48.698;11.472;2023-02-21T10:35:50;5.05;;;2.95;;
50769;SDS011;36740;48.698;11.472;2023-02-21T10:38:40;4.70;;;2.45;;
50769;SDS011;36740;48.698;11.472;2023-02-21T10:41:27;6.80;;;3.38;;
50769;SDS011;36740;48.698;11.472;2023-02-21T10:44:18;5.40;;;3.22;;
50769;SDS011;36740;48.698;11.472;2023-02-21T10:47:07;10.45;;;5.13;;
50769;SDS011;36740;48.698;11.472;2023-02-21T10:50:03;5.72;;;3.17;;
50769;SDS011;36740;48.698;11.472;2023-02-21T10:52:49;5.07;;;3.20;;
50769;SDS011;36740;48.698;11.472;2023-02-21T10:55:35;14.38;;;3.70;;
50769;SDS011;36740;48.698;11.472;2023-02-21T10:58:22;11.65;;;3.10;;
50769;SDS011;36740;48.698;11.472;2023-02-21T11:04:01;6.38;;;2.90;;
50769;SDS011;36740;48.698;11.472;2023-02-21T11:06:48;10.18;;;3.97;;
50769;SDS011;36740;48.698;11.472;2023-02-21T11:12:21;8.35;;;4.22;;
50769;SDS011;36740;48.698;11.472;2023-02-21T11:15:14;6.55;;;3.15;;
50769;SDS011;36740;48.698;11.472;2023-02-21T11:18:04;4.00;;;2.17;;
50769;SDS011;36740;48.698;11.472;2023-02-21T11:20:51;5.97;;;3.85;;
50769;SDS011;36740;48.698;11.472;2023-02-21T11:23:37;6.03;;;3.53;;
50769;SDS011;36740;48.698;11.472;2023-02-21T11:27:01;6.40;;;2.72;;
50769;SDS011;36740;48.698;11.472;2023-02-21T11:29:41;2.90;;;2.47;;
50769;SDS011;36740;48.698;11.472;2023-02-21T11:32:29;9.13;;;3.75;;
50769;SDS011;36740;48.698;11.472;2023-02-21T11:38:05;6.38;;;2.97;;
50769;SDS011;36740;48.698;11.472;2023-02-21T11:40:51;5.00;;;2.88;;
50769;SDS011;36740;48.698;11.472;2023-02-21T11:56:05;4.88;;;2.70;;
50769;SDS011;36740;48.698;11.472;2023-02-21T12:11:15;5.15;;;2.28;;
50769;SDS011;36740;48.698;11.472;2023-02-21T12:17:03;6.03;;;2.80;;
50769;SDS011;36740;48.698;11.472;2023-02-21T12:43:14;4.38;;;2.15;;
50769;SDS011;36740;48.698;11.472;2023-02-21T12:46:08;7.80;;;3.88;;
50769;SDS011;36740;48.698;11.472;2023-02-21T12:48:59;10.15;;;4.90;;
50769;SDS011;36740;48.698;11.472;2023-02-21T12:51:52;7.65;;;3.20;;
50769;SDS011;36740;48.698;11.472;2023-02-21T12:54:44;6.40;;;3.58;;
50769;SDS011;36740;48.698;11.472;2023-02-21T12:57:42;7.13;;;3.47;;
50769;SDS011;36740;48.698;11.472;2023-02-21T13:00:52;4.18;;;1.92;;
50769;SDS011;36740;48.698;11.472;2023-02-21T13:12:57;5.00;;;2.47;;
50769;SDS011;36740;48.698;11.472;2023-02-21T13:15:45;8.10;;;4.18;;
50769;SDS011;36740;48.698;11.472;2023-02-21T13:18:33;7.30;;;2.83;;
50769;SDS011;36740;48.698;11.472;2023-02-21T13:24:59;7.45;;;2.53;;
50769;SDS011;36740;48.698;11.472;2023-02-21T13:36:39;6.55;;;2.45;;
50769;SDS011;36740;48.698;11.472;2023-02-21T13:39:27;5.28;;;2.30;;
50769;SDS011;36740;48.698;11.472;2023-02-21T13:42:19;3.00;;;1.90;;
50769;SDS011;36740;48.698;11.472;2023-02-21T13:50:48;5.63;;;2.45;;
50769;SDS011;36740;48.698;11.472;2023-02-21T13:56:40;4.78;;;2.40;;
50769;SDS011;36740;48.698;11.472;2023-02-21T13:59:31;4.18;;;2.42;;
50769;SDS011;36740;48.698;11.472;2023-02-21T14:02:22;3.20;;;2.05;;
50769;SDS011;36740;48.698;11.472;2023-02-21T14:08:35;2.53;;;1.08;;
50769;SDS011;36740;48.698;11.472;2023-02-21T14:11:25;6.22;;;1.73;;
50769;SDS011;36740;48.698;11.472;2023-02-21T14:14:20;2.83;;;1.17;;
50769;SDS011;36740;48.698;11.472;2023-02-21T14:17:10;2.55;;;1.70;;
50769;SDS011;36740;48.698;11.472;2023-02-21T14:19:56;4.63;;;1.80;;
50769;SDS011;36740;48.698;11.472;2023-02-21T14:22:44;5.47;;;1.75;;
50769;SDS011;36740;48.698;11.472;2023-02-21T14:25:30;6.05;;;1.50;;
50769;SDS011;36740;48.698;11.472;2023-02-21T14:34:29;5.47;;;2.22;;
50769;SDS011;36740;48.698;11.472;2023-02-21T14:37:33;2.97;;;1.95;;
50769;SDS011;36740;48.698;11.472;2023-02-21T14:40:30;6.63;;;1.50;;
50769;SDS011;36740;48.698;11.472;2023-02-21T14:43:25;3.80;;;1.53;;
50769;SDS011;36740;48.698;11.472;2023-02-21T14:49:19;2.80;;;1.23;;
50769;SDS011;36740;48.698;11.472;2023-02-21T14:54:59;4.80;;;2.03;;
50769;SDS011;36740;48.698;11.472;2023-02-21T15:04:01;3.10;;;1.33;;
50769;SDS011;36740;48.698;11.472;2023-02-21T15:06:54;3.45;;;1.48;;
50769;SDS011;36740;48.698;11.472;2023-02-21T15:09:41;3.50;;;1.95;;
50769;SDS011;36740;48.698;11.472;2023-02-21T15:12:27;2.55;;;1.45;;
50769;SDS011;36740;48.698;11.472;2023-02-21T15:15:13;9.02;;;1.88;;
50769;SDS011;36740;48.698;11.472;2023-02-21T15:18:01;5.45;;;1.20;;
50769;SDS011;36740;48.698;11.472;2023-02-21T15:20:51;2.47;;;1.67;;
50769;SDS011;36740;48.698;11.472;2023-02-21T15:23:58;3.33;;;1.42;;
50769;SDS011;36740;48.698;11.472;2023-02-21T15:26:44;2.67;;;1.35;;
50769;SDS011;36740;48.698;11.472;2023-02-21T15:29:30;3.75;;;1.55;;
50769;SDS011;36740;48.698;11.472;2023-02-21T15:32:15;3.50;;;1.30;;
50769;SDS011;36740;48.698;11.472;2023-02-21T15:35:04;2.50;;;1.20;;
50769;SDS011;36740;48.698;11.472;2023-02-21T15:37:50;3.00;;;1.40;;
50769;SDS011;36740;48.698;11.472;2023-02-21T15:40:36;3.13;;;1.65;;
50769;SDS011;36740;48.698;11.472;2023-02-21T15:43:30;1.38;;;1.23;;
50769;SDS011;36740;48.698;11.472;2023-02-21T15:46:18;5.03;;;2.00;;
50769;SDS011;36740;48.698;11.472;2023-02-21T15:49:04;2.70;;;1.85;;
50769;SDS011;36740;48.698;11.472;2023-02-21T15:51:50;3.25;;;1.92;;
50769;SDS011;36740;48.698;11.472;2023-02-21T15:54:36;1.52;;;1.30;;
50769;SDS011;36740;48.698;11.472;2023-02-21T15:57:25;3.33;;;1.95;;
50769;SDS011;36740;48.698;11.472;2023-02-21T16:08:57;2.88;;;1.30;;
50769;SDS011;36740;48.698;11.472;2023-02-21T16:11:48;25.88;;;13.80;;
50769;SDS011;36740;48.698;11.472;2023-02-21T16:17:38;5.50;;;2.17;;
50769;SDS011;36740;48.698;11.472;2023-02-21T16:20:27;6.78;;;1.80;;
50769;SDS011;36740;48.698;11.472;2023-02-21T16:23:22;4.97;;;2.10;;
50769;SDS011;36740;48.698;11.472;2023-02-21T16:28:54;4.65;;;2.25;;
50769;SDS011;36740;48.698;11.472;2023-02-21T16:31:42;7.50;;;1.98;;
50769;SDS011;36740;48.698;11.472;2023-02-21T16:34:29;2.80;;;1.55;;
50769;SDS011;36740;48.698;11.472;2023-02-21T16:37:15;2.63;;;1.45;;
50769;SDS011;36740;48.698;11.472;2023-02-21T16:40:01;4.22;;;2.58;;
50769;SDS011;36740;48.698;11.472;2023-02-21T16:42:47;2.20;;;1.77;;
50769;SDS011;36740;48.698;11.472;2023-02-21T16:45:32;4.85;;;2.05;;
50769;SDS011;36740;48.698;11.472;2023-02-21T16:48:22;2.22;;;1.42;;
50769;SDS011;36740;48.698;11.472;2023-02-21T16:51:10;3.70;;;2.08;;
50769;SDS011;36740;48.698;11.472;2023-02-21T16:53:58;2.70;;;1.95;;
50769;SDS011;36740;48.698;11.472;2023-02-21T16:56:45;5.70;;;2.58;;
50769;SDS011;36740;48.698;11.472;2023-02-21T16:59:32;2.20;;;1.88;;
50769;SDS011;36740;48.698;11.472;2023-02-21T17:02:18;2.22;;;1.83;;
50769;SDS011;36740;48.698;11.472;2023-02-21T17:05:04;16.17;;;1.95;;
50769;SDS011;36740;48.698;11.472;2023-02-21T17:07:53;1.40;;;1.30;;
50769;SDS011;36740;48.698;11.472;2023-02-21T17:10:39;2.75;;;1.30;;
50769;SDS011;36740;48.698;11.472;2023-02-21T17:13:25;3.25;;;1.90;;
50769;SDS011;36740;48.698;11.472;2023-02-21T17:16:10;2.75;;;1.85;;
50769;SDS011;36740;48.698;11.472;2023-02-21T17:18:56;21.88;;;10.85;;
50769;SDS011;36740;48.698;11.472;2023-02-21T17:21:42;5.20;;;2.50;;
50769;SDS011;36740;48.698;11.472;2023-02-21T17:24:28;2.03;;;1.55;;
50769;SDS011;36740;48.698;11.472;2023-02-21T17:27:16;2.58;;;1.58;;
50769;SDS011;36740;48.698;11.472;2023-02-21T17:30:03;2.30;;;1.58;;
50769;SDS011;36740;48.698;11.472;2023-02-21T17:32:49;4.53;;;2.65;;
50769;SDS011;36740;48.698;11.472;2023-02-21T17:35:35;15.43;;;2.95;;
50769;SDS011;36740;48.698;11.472;2023-02-21T17:38:21;3.33;;;2.30;;
50769;SDS011;36740;48.698;11.472;2023-02-21T17:41:07;6.13;;;3.97;;
50769;SDS011;36740;48.698;11.472;2023-02-21T17:43:53;5.65;;;3.28;;
50769;SDS011;36740;48.698;11.472;2023-02-21T17:46:39;4.28;;;2.08;;
50769;SDS011;36740;48.698;11.472;2023-02-21T17:49:25;5.32;;;1.73;;
50769;SDS011;36740;48.698;11.472;2023-02-21T17:52:10;12.73;;;4.10;;
50769;SDS011;36740;48.698;11.472;2023-02-21T17:54:58;3.58;;;1.98;;
50769;SDS011;36740;48.698;11.472;2023-02-21T17:57:44;11.27;;;4.43;;
50769;SDS011;36740;48.698;11.472;2023-02-21T18:00:29;5.80;;;2.55;;
50769;SDS011;36740;48.698;11.472;2023-02-21T18:03:20;4.95;;;2.08;;
50769;SDS011;36740;48.698;11.472;2023-02-21T18:06:05;3.03;;;2.08;;
50769;SDS011;36740;48.698;11.472;2023-02-21T18:08:51;9.43;;;2.60;;
50769;SDS011;36740;48.698;11.472;2023-02-21T18:11:37;7.20;;;4.18;;
50769;SDS011;36740;48.698;11.472;2023-02-21T18:14:23;5.30;;;3.47;;
50769;SDS011;36740;48.698;11.472;2023-02-21T18:17:11;6.18;;;3.22;;
50769;SDS011;36740;48.698;11.472;2023-02-21T18:19:57;4.68;;;3.35;;
50769;SDS011;36740;48.698;11.472;2023-02-21T18:22:43;4.35;;;2.67;;
50769;SDS011;36740;48.698;11.472;2023-02-21T18:25:28;14.75;;;4.20;;
50769;SDS011;36740;48.698;11.472;2023-02-21T18:28:14;5.25;;;2.80;;
50769;SDS011;36740;48.698;11.472;2023-02-21T18:31:00;7.80;;;2.90;;
50769;SDS011;36740;48.698;11.472;2023-02-21T18:33:45;3.78;;;2.97;;
50769;SDS011;36740;48.698;11.472;2023-02-21T18:36:31;14.07;;;4.00;;
50769;SDS011;36740;48.698;11.472;2023-02-21T18:39:17;7.95;;;2.70;;
50769;SDS011;36740;48.698;11.472;2023-02-21T18:42:02;4.68;;;2.55;;
50769;SDS011;36740;48.698;11.472;2023-02-21T18:44:48;8.65;;;2.45;;
50769;SDS011;36740;48.698;11.472;2023-02-21T18:47:34;5.82;;;2.92;;
50769;SDS011;36740;48.698;11.472;2023-02-21T18:50:20;5.25;;;2.83;;
50769;SDS011;36740;48.698;11.472;2023-02-21T18:53:06;3.15;;;1.95;;
50769;SDS011;36740;48.698;11.472;2023-02-21T18:55:51;4.18;;;2.20;;
50769;SDS011;36740;48.698;11.472;2023-02-21T18:58:37;3.42;;;2.75;;
50769;SDS011;36740;48.698;11.472;2023-02-21T19:01:23;3.08;;;2.03;;
50769;SDS011;36740;48.698;11.472;2023-02-21T19:04:11;3.17;;;1.90;;
50769;SDS011;36740;48.698;11.472;2023-02-21T19:06:56;3.05;;;1.73;;
50769;SDS011;36740;48.698;11.472;2023-02-21T19:09:46;5.13;;;2.55;;
50769;SDS011;36740;48.698;11.472;2023-02-21T19:12:31;4.22;;;2.63;;
50769;SDS011;36740;48.698;11.472;2023-02-21T19:15:17;7.55;;;2.55;;
50769;SDS011;36740;48.698;11.472;2023-02-21T19:18:03;4.00;;;2.55;;
50769;SDS011;36740;48.698;11.472;2023-02-21T19:20:49;5.15;;;2.33;;
50769;SDS011;36740;48.698;11.472;2023-02-21T19:23:34;6.90;;;2.30;;
50769;SDS011;36740;48.698;11.472;2023-02-21T19:26:28;1.55;;;1.45;;
50769;SDS011;36740;48.698;11.472;2023-02-21T19:29:14;3.90;;;2.38;;
50769;SDS011;36740;48.698;11.472;2023-02-21T19:31:59;6.95;;;3.63;;
50769;SDS011;36740;48.698;11.472;2023-02-21T19:34:45;2.35;;;2.03;;
50769;SDS011;36740;48.698;11.472;2023-02-21T19:37:31;4.32;;;2.80;;
50769;SDS011;36740;48.698;11.472;2023-02-21T19:40:16;4.72;;;2.25;;